< < Back
Terminal Aerodrome Forecast


Current Version              Previous Versions:   1  2  3  4  5  6  7  8  9  

Terminal Aerodrome Forecast

147
FTUS42 KFFC 031123
TAFMCN
TAF
KMCN 031123Z 0312/0412 24005KT P6SM SCT025 OVC035
     FM031500 27009KT P6SM BKN025
     FM031800 27010KT 5SM -TSRA BKN030CB
     FM032200 26010KT P6SM VCSH BKN050
     FM040000 28008KT P6SM BKN250
     FM040300 28008KT P6SM SCT250=

Latest METAR

980
SAUS80 KWBC 032000 RRA
MTRMCN
METAR KMCN 031953Z 27008G15KT 10SM SCT039 BKN048 BKN075 27/18 A2983 RMK
AO2 SLP098 T02670178


USA.gov is the U.S. government's official web portal to all federal, state and local government web resources and services.